Time;durP1;ratioP1;P1;durP2;ratioP2;P2;SDS_P1;SDS_P2;PMS_P1;PMS_P2;Temp;Humidity;BMP_temperature;BMP_pressure;BME280_temperature;BME280_humidity;BME280_pressure;Samples;Min_cycle;Max_cycle;Signal;HPM_P1;HPM_P2
2020/12/02 00:01:17;;;;;;;20.97;11.47;;;3.00;99.90;;;;;;5071530;28;20303;-63
2020/12/02 00:03:50;;;;;;;24.77;12.37;;;3.00;99.90;;;;;;5071423;28;20194;-64
2020/12/02 00:06:18;;;;;;;28.77;13.23;;;3.00;99.90;;;;;;5076273;28;20708;-64
2020/12/02 00:08:50;;;;;;;21.73;11.47;;;3.10;99.90;;;;;;5071466;28;20278;-65
2020/12/02 00:11:18;;;;;;;24.97;11.70;;;3.10;99.90;;;;;;5081994;28;20190;-65
2020/12/02 00:13:47;;;;;;;23.77;12.03;;;3.10;99.90;;;;;;5090937;28;20327;-63
2020/12/02 00:16:18;;;;;;;23.23;11.70;;;3.10;99.90;;;;;;5070822;28;20223;-64
2020/12/02 00:18:46;;;;;;;23.03;11.50;;;3.10;99.90;;;;;;5071123;28;20214;-65
2020/12/02 00:21:13;;;;;;;23.37;11.00;;;3.10;99.90;;;;;;5070981;28;20211;-65
2020/12/02 00:23:39;;;;;;;19.67;9.27;;;3.10;99.90;;;;;;5079385;28;20228;-65
2020/12/02 00:26:07;;;;;;;15.50;9.33;;;3.10;99.90;;;;;;5091375;28;20198;-64
2020/12/02 00:28:36;;;;;;;17.63;9.00;;;3.00;99.90;;;;;;5091127;28;20259;-64
2020/12/02 00:31:02;;;;;;;16.90;8.97;;;3.10;99.90;;;;;;5091478;28;20255;-65
2020/12/02 00:33:29;;;;;;;17.70;8.97;;;3.10;99.90;;;;;;5091451;28;20195;-64
2020/12/02 00:35:56;;;;;;;17.30;8.83;;;3.10;99.90;;;;;;5090844;28;20214;-65
2020/12/02 00:38:23;;;;;;;16.17;8.53;;;3.10;99.90;;;;;;5090240;28;20632;-63
2020/12/02 00:40:51;;;;;;;13.10;6.77;;;3.00;99.90;;;;;;5090644;28;20252;-63
2020/12/02 00:43:19;;;;;;;14.67;7.70;;;3.10;99.90;;;;;;5090907;28;20271;-65
2020/12/02 00:45:47;;;;;;;14.10;7.43;;;3.00;99.90;;;;;;5091020;28;20218;-66
2020/12/02 00:48:16;;;;;;;12.60;6.17;;;3.00;99.90;;;;;;5090935;28;20293;-65
2020/12/02 00:50:42;;;;;;;10.20;6.07;;;3.00;99.90;;;;;;5091360;28;20609;-65
2020/12/02 00:53:11;;;;;;;10.60;5.67;;;3.00;99.90;;;;;;5090706;28;20194;-64
2020/12/02 00:55:38;;;;;;;9.37;5.43;;;3.00;99.90;;;;;;5090858;28;20244;-65
2020/12/02 00:58:08;;;;;;;8.20;4.90;;;3.00;99.90;;;;;;5094886;28;20194;-64
2020/12/02 01:00:39;;;;;;;7.40;4.67;;;3.00;99.90;;;;;;5094126;28;20206;-65
2020/12/02 01:03:13;;;;;;;8.63;5.73;;;2.90;99.90;;;;;;5094906;28;20218;-65
2020/12/02 01:05:40;;;;;;;11.87;6.60;;;2.90;99.90;;;;;;5094919;28;20189;-65
2020/12/02 01:08:24;;;;;;;14.77;6.97;;;2.80;99.90;;;;;;5093375;28;20233;-63
2020/12/02 01:10:57;;;;;;;11.50;6.47;;;2.90;99.90;;;;;;5094796;28;20214;-65
2020/12/02 01:13:24;;;;;;;10.07;6.23;;;2.80;99.90;;;;;;5094243;28;20309;-64
2020/12/02 01:15:50;;;;;;;8.00;5.30;;;2.80;99.90;;;;;;5094594;28;20706;-66
2020/12/02 01:18:21;;;;;;;6.87;4.37;;;2.80;99.90;;;;;;5094151;28;20230;-64
2020/12/02 01:20:55;;;;;;;10.33;5.57;;;2.80;99.90;;;;;;5094417;28;20274;-64
2020/12/02 01:23:22;;;;;;;8.43;4.80;;;2.70;99.90;;;;;;5093821;28;20505;-64
2020/12/02 01:25:49;;;;;;;9.97;5.53;;;2.70;99.90;;;;;;5094089;28;20366;-64
2020/12/02 01:28:24;;;;;;;10.67;5.10;;;2.60;99.90;;;;;;5094140;28;20252;-64
2020/12/02 01:30:50;;;;;;;6.73;4.77;;;2.60;99.90;;;;;;5094112;28;20231;-65
2020/12/02 01:33:18;;;;;;;11.97;4.90;;;2.70;99.90;;;;;;5093658;28;20198;-64
2020/12/02 01:35:47;;;;;;;9.27;4.67;;;2.70;99.90;;;;;;5093062;28;20578;-65
2020/12/02 01:38:20;;;;;;;5.90;3.70;;;2.70;99.90;;;;;;5093799;28;20182;-65
2020/12/02 01:40:47;;;;;;;5.47;3.67;;;2.70;99.90;;;;;;5093619;28;20662;-65
2020/12/02 01:43:14;;;;;;;7.23;4.50;;;2.60;99.90;;;;;;5093346;28;20325;-65
2020/12/02 01:45:42;;;;;;;5.73;4.30;;;2.60;99.90;;;;;;5093494;28;20230;-63
2020/12/02 01:48:41;;;;;;;6.10;4.47;;;2.60;99.90;;;;;;5093738;28;20202;-66
2020/12/02 01:51:12;;;;;;;6.17;4.40;;;2.60;99.90;;;;;;5081481;28;20728;-66
2020/12/02 01:53:50;;;;;;;5.40;3.20;;;2.60;99.90;;;;;;5073392;28;20278;-64
2020/12/02 01:56:22;;;;;;;5.40;4.10;;;2.50;99.90;;;;;;5073160;28;20254;-64
2020/12/02 01:59:02;;;;;;;6.43;3.37;;;2.40;99.90;;;;;;5073097;28;20194;-66
2020/12/02 02:01:38;;;;;;;5.43;3.70;;;2.40;99.90;;;;;;5090846;28;20290;-64
2020/12/02 02:04:07;;;;;;;5.17;3.70;;;2.40;99.90;;;;;;5079179;28;20225;-67
2020/12/02 02:07:01;;;;;;;6.03;4.17;;;2.40;99.90;;;;;;5072030;28;20238;-63
2020/12/02 02:09:28;;;;;;;5.67;3.50;;;2.40;99.90;;;;;;5072692;28;20229;-65
2020/12/02 02:12:13;;;;;;;5.60;3.97;;;2.50;99.90;;;;;;5072624;28;20234;-63
2020/12/02 02:14:47;;;;;;;5.50;4.13;;;2.50;99.90;;;;;;5072918;28;20237;-64
2020/12/02 02:17:13;;;;;;;5.43;4.20;;;2.50;99.90;;;;;;5072997;28;20219;-64
2020/12/02 02:19:41;;;;;;;4.87;3.63;;;2.50;99.90;;;;;;5073381;28;20221;-66
2020/12/02 02:22:07;;;;;;;4.67;3.80;;;2.50;99.90;;;;;;5072827;28;20268;-64
2020/12/02 02:24:34;;;;;;;5.27;4.00;;;2.50;99.90;;;;;;5072482;28;20577;-63
2020/12/02 02:27:01;;;;;;;3.27;2.83;;;2.50;99.90;;;;;;5072473;28;20195;-62
2020/12/02 02:29:32;;;;;;;3.20;2.60;;;2.50;99.90;;;;;;5089965;28;20182;-65
2020/12/02 02:32:01;;;;;;;2.77;2.40;;;2.50;99.90;;;;;;5092008;28;20679;-63
2020/12/02 02:34:30;;;;;;;3.97;2.83;;;2.50;99.90;;;;;;5090690;28;20243;-65
2020/12/02 02:36:59;;;;;;;3.93;3.20;;;2.40;99.90;;;;;;5092058;28;20253;-64
2020/12/02 02:39:25;;;;;;;3.47;2.67;;;2.40;99.90;;;;;;5092711;28;20223;-65
2020/12/02 02:41:56;;;;;;;2.93;2.50;;;2.40;99.90;;;;;;5091652;28;20249;-64
2020/12/02 02:44:24;;;;;;;2.40;2.20;;;2.50;99.90;;;;;;5092698;28;20241;-65
2020/12/02 02:46:51;;;;;;;3.83;2.93;;;2.50;99.90;;;;;;5092623;28;20320;-64
2020/12/02 02:49:18;;;;;;;2.80;2.30;;;2.50;99.90;;;;;;5092393;28;20232;-64
2020/12/02 02:51:45;;;;;;;2.93;2.50;;;2.50;99.90;;;;;;5091919;28;20241;-65
2020/12/02 02:54:11;;;;;;;3.13;2.23;;;2.50;99.90;;;;;;5092107;28;20332;-64
2020/12/02 02:56:38;;;;;;;2.60;2.40;;;2.50;99.90;;;;;;5091673;28;20550;-64
2020/12/02 02:59:04;;;;;;;3.17;2.40;;;2.50;99.90;;;;;;5088458;28;20596;-64
2020/12/02 03:01:33;;;;;;;3.40;2.73;;;2.50;99.90;;;;;;5071425;28;20253;-64
2020/12/02 03:04:00;;;;;;;3.40;2.60;;;2.50;99.90;;;;;;5075324;28;20631;-65
2020/12/02 03:06:26;;;;;;;3.17;2.83;;;2.50;99.90;;;;;;5092061;28;20278;-64
2020/12/02 03:08:53;;;;;;;3.43;3.03;;;2.60;99.90;;;;;;5092077;28;20190;-64
2020/12/02 03:11:19;;;;;;;4.07;3.40;;;2.60;99.90;;;;;;5092091;28;20295;-65
2020/12/02 03:13:49;;;;;;;3.57;3.03;;;2.70;99.90;;;;;;5091441;28;20665;-65
2020/12/02 03:16:23;;;;;;;4.70;3.17;;;2.60;99.90;;;;;;5091866;28;20605;-66
2020/12/02 03:18:52;;;;;;;3.83;3.10;;;2.60;99.90;;;;;;5091176;28;20527;-64
2020/12/02 03:21:22;;;;;;;4.27;3.03;;;2.60;99.90;;;;;;5091610;28;20206;-63
2020/12/02 03:23:50;;;;;;;4.23;3.20;;;2.60;99.90;;;;;;5090970;28;20583;-65
2020/12/02 03:26:18;;;;;;;4.77;3.03;;;2.70;99.90;;;;;;5091153;28;20652;-63
2020/12/02 03:28:45;;;;;;;4.50;3.77;;;2.60;99.90;;;;;;5090466;28;20190;-63
2020/12/02 03:31:15;;;;;;;6.57;4.20;;;2.70;99.90;;;;;;5091676;28;20243;-65
2020/12/02 03:33:42;;;;;;;6.03;4.40;;;2.70;99.90;;;;;;5091729;28;20235;-64
2020/12/02 03:36:14;;;;;;;5.53;4.37;;;2.70;99.90;;;;;;5082506;28;20357;-65
2020/12/02 03:38:42;;;;;;;5.83;4.73;;;2.60;99.90;;;;;;5074480;28;20182;-65
2020/12/02 03:41:09;;;;;;;7.27;4.87;;;2.60;99.90;;;;;;5091646;28;20182;-65
2020/12/02 03:43:35;;;;;;;5.83;3.90;;;2.70;99.90;;;;;;5091758;28;20247;-66
2020/12/02 03:46:02;;;;;;;5.77;4.50;;;2.70;99.90;;;;;;5091824;28;20596;-65
2020/12/02 03:48:30;;;;;;;7.17;4.97;;;2.60;99.90;;;;;;5091390;28;20194;-64
2020/12/02 03:50:56;;;;;;;7.83;4.93;;;2.60;99.90;;;;;;5091546;28;20803;-66
2020/12/02 03:53:23;;;;;;;9.10;5.83;;;2.60;99.90;;;;;;5091164;28;20197;-65
2020/12/02 03:55:50;;;;;;;8.57;5.63;;;2.60;99.90;;;;;;5090425;28;20661;-66
2020/12/02 03:58:17;;;;;;;11.07;6.40;;;2.70;99.90;;;;;;5091683;28;20316;-66
2020/12/02 04:00:44;;;;;;;10.57;6.17;;;2.70;99.90;;;;;;5091242;28;20182;-63
2020/12/02 04:03:11;;;;;;;8.47;5.67;;;2.70;99.90;;;;;;5091145;28;20733;-65
2020/12/02 04:05:37;;;;;;;9.67;6.30;;;2.70;99.90;;;;;;5091243;28;20198;-64
2020/12/02 04:08:04;;;;;;;9.90;6.90;;;2.70;99.90;;;;;;5091449;28;20194;-66
2020/12/02 04:10:32;;;;;;;11.93;7.27;;;2.70;99.90;;;;;;5091051;28;20229;-66
2020/12/02 04:12:58;;;;;;;9.70;6.30;;;2.70;99.90;;;;;;5091555;28;20316;-65
2020/12/02 04:15:25;;;;;;;12.37;6.77;;;2.70;99.90;;;;;;5091248;28;20190;-64
2020/12/02 04:17:53;;;;;;;16.03;7.50;;;2.70;99.90;;;;;;5091054;28;20193;-64
2020/12/02 04:20:20;;;;;;;11.50;7.53;;;2.70;99.90;;;;;;5090924;28;20191;-67
2020/12/02 04:22:48;;;;;;;13.60;7.93;;;2.70;99.90;;;;;;5091416;28;20537;-63
2020/12/02 04:25:15;;;;;;;10.80;7.30;;;2.70;99.90;;;;;;5090180;28;20737;-66
2020/12/02 04:27:42;;;;;;;11.43;7.27;;;2.80;99.90;;;;;;5090628;28;20182;-63
2020/12/02 04:30:10;;;;;;;13.63;8.50;;;2.80;99.90;;;;;;5082507;28;20223;-65
2020/12/02 04:32:36;;;;;;;15.20;8.13;;;2.70;99.90;;;;;;5074550;28;20261;-63
2020/12/02 04:35:04;;;;;;;11.77;7.50;;;2.80;99.90;;;;;;5074493;28;20245;-65
2020/12/02 04:37:31;;;;;;;18.43;7.87;;;2.80;99.90;;;;;;5074874;28;20269;-64
2020/12/02 04:39:59;;;;;;;16.63;7.87;;;2.70;99.90;;;;;;5074781;28;20241;-66
2020/12/02 04:42:29;;;;;;;14.50;8.30;;;2.70;99.90;;;;;;5074425;28;20258;-63
2020/12/02 04:44:58;;;;;;;13.13;8.37;;;2.60;99.90;;;;;;5074989;28;20187;-66
2020/12/02 04:47:32;;;;;;;12.20;7.87;;;2.70;99.90;;;;;;5074672;28;20600;-65
2020/12/02 04:49:58;;;;;;;17.03;8.77;;;2.60;99.90;;;;;;5074420;28;20391;-64
2020/12/02 04:52:25;;;;;;;18.33;8.93;;;2.70;99.90;;;;;;5084541;28;20331;-64
2020/12/02 04:54:52;;;;;;;17.57;7.47;;;2.70;99.90;;;;;;5094449;28;20190;-64
2020/12/02 04:57:18;;;;;;;12.67;8.23;;;2.70;99.90;;;;;;5094283;28;20229;-65
2020/12/02 04:59:45;;;;;;;10.83;7.20;;;2.80;99.90;;;;;;5094789;28;20619;-64
2020/12/02 05:02:24;;;;;;;12.80;7.70;;;2.70;99.90;;;;;;5094649;28;20253;-64
2020/12/02 05:04:55;;;;;;;11.40;7.20;;;2.70;99.90;;;;;;5094817;28;20186;-65
2020/12/02 05:07:24;;;;;;;14.40;8.57;;;2.60;99.90;;;;;;5093818;28;20294;-64
2020/12/02 05:10:07;;;;;;;15.60;8.37;;;2.70;99.90;;;;;;5094141;28;20643;-65
2020/12/02 05:12:38;;;;;;;19.33;8.63;;;2.70;99.90;;;;;;5094362;28;20186;-64
2020/12/02 05:15:20;;;;;;;14.40;8.57;;;2.60;99.90;;;;;;5094112;28;20232;-66
2020/12/02 05:18:03;;;;;;;19.37;9.10;;;2.60;99.90;;;;;;5094378;28;20186;-65
2020/12/02 05:20:29;;;;;;;18.70;8.30;;;2.70;99.90;;;;;;5085876;28;20296;-65
2020/12/02 05:22:56;;;;;;;22.03;8.90;;;2.60;99.90;;;;;;5094528;28;20303;-65
2020/12/02 05:25:29;;;;;;;17.43;8.60;;;2.60;99.90;;;;;;5094120;28;20243;-67
2020/12/02 05:28:05;;;;;;;15.73;9.23;;;2.60;99.90;;;;;;5094235;28;20182;-66
2020/12/02 05:30:34;;;;;;;20.93;10.23;;;2.70;99.90;;;;;;5093438;28;20213;-66
2020/12/02 05:33:15;;;;;;;20.63;9.50;;;2.60;99.90;;;;;;5093935;28;20202;-64
2020/12/02 05:35:46;;;;;;;21.10;9.03;;;2.70;99.90;;;;;;5093675;28;20251;-65
2020/12/02 05:38:18;;;;;;;16.17;8.67;;;2.70;99.90;;;;;;5094106;28;20190;-64
2020/12/02 05:40:45;;;;;;;17.73;9.33;;;2.60;99.90;;;;;;5094017;28;20182;-64
2020/12/02 05:43:23;;;;;;;19.13;9.20;;;2.70;99.90;;;;;;5092808;28;20233;-67
2020/12/02 05:45:52;;;;;;;22.67;9.40;;;2.60;99.90;;;;;;5093808;28;20182;-67
2020/12/02 05:48:23;;;;;;;21.27;9.53;;;2.60;99.90;;;;;;5092887;28;20236;-64
2020/12/02 05:50:52;;;;;;;21.07;9.83;;;2.70;99.90;;;;;;5093745;28;20186;-66
2020/12/02 05:53:24;;;;;;;17.37;9.27;;;2.60;99.90;;;;;;5093902;28;20232;-65
2020/12/02 05:55:51;;;;;;;22.80;9.63;;;2.60;99.90;;;;;;5093566;28;20322;-64
2020/12/02 05:58:20;;;;;;;25.43;12.47;;;2.60;99.90;;;;;;5093464;28;20201;-64
2020/12/02 06:00:46;;;;;;;21.03;10.40;;;2.60;99.90;;;;;;5093587;28;20615;-67
2020/12/02 06:03:16;;;;;;;29.80;13.27;;;2.60;99.90;;;;;;5093913;28;20282;-66
2020/12/02 06:05:44;;;;;;;22.10;10.43;;;2.60;99.90;;;;;;5093717;28;20240;-67
2020/12/02 06:08:30;;;;;;;26.63;10.63;;;2.60;99.90;;;;;;5093720;28;20247;-64
2020/12/02 06:11:18;;;;;;;19.93;9.90;;;2.60;99.90;;;;;;5093351;28;20573;-66
2020/12/02 06:13:48;;;;;;;20.63;10.77;;;2.60;99.90;;;;;;5088605;28;20218;-65
2020/12/02 06:16:17;;;;;;;20.67;10.53;;;2.60;99.90;;;;;;5073837;28;20232;-64
2020/12/02 06:18:43;;;;;;;22.83;10.73;;;2.60;99.90;;;;;;5088365;28;20578;-65
2020/12/02 06:21:26;;;;;;;20.53;10.87;;;2.60;99.90;;;;;;5093538;28;20688;-66
2020/12/02 06:23:57;;;;;;;23.27;10.63;;;2.60;99.90;;;;;;5093443;28;20218;-67
2020/12/02 06:26:34;;;;;;;22.70;11.00;;;2.60;99.90;;;;;;5093395;28;20278;-64
2020/12/02 06:29:03;;;;;;;21.67;10.47;;;2.60;99.90;;;;;;5093468;28;20229;-65
2020/12/02 06:31:31;;;;;;;28.47;11.77;;;2.60;99.90;;;;;;5093350;28;20198;-66
2020/12/02 06:34:00;;;;;;;21.10;11.40;;;2.70;99.90;;;;;;5093536;28;20303;-64
2020/12/02 06:36:29;;;;;;;24.57;11.40;;;2.60;99.90;;;;;;5093443;28;20257;-66
2020/12/02 06:39:13;;;;;;;20.10;10.73;;;2.70;99.90;;;;;;5093343;28;20225;-67
2020/12/02 06:41:41;;;;;;;19.30;10.83;;;2.70;99.90;;;;;;5092650;28;20194;-65
2020/12/02 06:44:36;;;;;;;18.63;10.63;;;2.70;99.90;;;;;;5093314;28;20229;-65
2020/12/02 06:47:25;;;;;;;19.53;10.23;;;2.70;99.90;;;;;;5073459;28;20202;-65
2020/12/02 06:49:55;;;;;;;17.83;9.97;;;2.70;99.90;;;;;;5092766;28;20193;-66
2020/12/02 06:52:29;;;;;;;19.53;10.57;;;2.70;99.90;;;;;;5092735;28;20197;-66
2020/12/02 06:55:01;;;;;;;20.80;10.47;;;2.80;99.90;;;;;;5092438;28;20186;-65
2020/12/02 06:57:30;;;;;;;19.40;10.53;;;2.70;99.90;;;;;;5092628;28;20240;-65
2020/12/02 06:59:59;;;;;;;22.17;10.97;;;2.70;99.90;;;;;;5091100;28;20213;-66
2020/12/02 07:02:45;;;;;;;20.27;10.40;;;2.70;99.90;;;;;;5092681;28;20253;-65
2020/12/02 07:05:19;;;;;;;20.90;10.17;;;2.70;99.90;;;;;;5092484;28;20230;-64
2020/12/02 07:07:45;;;;;;;18.03;10.20;;;2.70;99.90;;;;;;5092157;28;20186;-65
2020/12/02 07:10:21;;;;;;;19.13;10.43;;;2.70;99.90;;;;;;5091720;28;20529;-64
2020/12/02 07:12:53;;;;;;;19.73;10.60;;;2.70;99.90;;;;;;5091971;28;20242;-63
2020/12/02 07:15:22;;;;;;;19.87;10.00;;;2.70;99.90;;;;;;5091084;28;20210;-66
2020/12/02 07:17:52;;;;;;;19.33;10.33;;;2.80;99.90;;;;;;5072209;28;20285;-65
2020/12/02 07:20:20;;;;;;;19.77;9.87;;;2.70;99.90;;;;;;5072045;28;20229;-67
2020/12/02 07:22:51;;;;;;;17.60;9.60;;;2.70;99.90;;;;;;5071612;28;20219;-64
2020/12/02 07:25:18;;;;;;;19.30;9.93;;;2.80;99.90;;;;;;5072342;28;20186;-66
2020/12/02 07:27:46;;;;;;;19.60;10.53;;;2.80;99.90;;;;;;5071721;28;20230;-65
2020/12/02 07:30:26;;;;;;;21.97;10.70;;;2.80;99.90;;;;;;5072074;28;20191;-65
2020/12/02 07:32:53;;;;;;;20.27;10.67;;;2.80;99.90;;;;;;5085440;28;20635;-65
2020/12/02 07:35:20;;;;;;;20.50;11.00;;;2.80;99.90;;;;;;5090563;28;20220;-64
2020/12/02 07:37:46;;;;;;;21.87;11.33;;;2.80;99.90;;;;;;5084627;28;20261;-66
2020/12/02 07:40:34;;;;;;;20.70;10.70;;;2.80;99.90;;;;;;5091760;28;20178;-67
2020/12/02 07:43:02;;;;;;;20.53;11.17;;;2.80;99.90;;;;;;5071976;28;20655;-66
2020/12/02 07:45:32;;;;;;;20.70;11.37;;;2.80;99.90;;;;;;5071921;28;20202;-65
2020/12/02 07:48:05;;;;;;;25.87;11.13;;;2.80;99.90;;;;;;5085663;28;20330;-64
2020/12/02 07:50:34;;;;;;;21.10;10.83;;;2.80;99.90;;;;;;5091001;28;20630;-66
2020/12/02 07:53:12;;;;;;;23.93;11.40;;;2.80;99.90;;;;;;5091725;28;20627;-65
2020/12/02 07:55:42;;;;;;;21.30;10.73;;;2.80;99.90;;;;;;5090790;28;20258;-64
2020/12/02 07:58:14;;;;;;;23.47;11.23;;;2.80;99.90;;;;;;5087618;28;20194;-64
2020/12/02 08:00:43;;;;;;;21.10;10.80;;;2.80;99.90;;;;;;5092036;28;20277;-65
2020/12/02 08:03:26;;;;;;;21.90;10.77;;;2.80;99.90;;;;;;5083190;28;20582;-66
2020/12/02 08:06:00;;;;;;;21.30;10.43;;;2.80;99.90;;;;;;5073914;28;20186;-66
2020/12/02 08:08:27;;;;;;;21.53;11.07;;;2.80;99.90;;;;;;5075503;28;20197;-65
2020/12/02 08:11:03;;;;;;;20.87;10.70;;;2.80;99.90;;;;;;5092644;28;20224;-64
2020/12/02 08:13:30;;;;;;;21.67;10.87;;;2.80;99.90;;;;;;5095800;28;20185;-63
2020/12/02 08:15:58;;;;;;;20.57;10.67;;;2.80;99.90;;;;;;5095780;28;20200;-64
2020/12/02 08:18:27;;;;;;;23.70;10.17;;;2.80;99.90;;;;;;5095721;28;20557;-66
2020/12/02 08:21:05;;;;;;;18.40;9.97;;;2.80;99.90;;;;;;5095944;28;20182;-68
2020/12/02 08:23:35;;;;;;;21.30;10.93;;;2.80;99.90;;;;;;5095631;28;20650;-66
2020/12/02 08:26:09;;;;;;;21.07;10.90;;;2.80;99.90;;;;;;5095469;28;20201;-66
2020/12/02 08:28:38;;;;;;;22.17;10.07;;;2.90;99.90;;;;;;5095476;28;20229;-64
2020/12/02 08:31:16;;;;;;;19.73;10.30;;;2.80;99.90;;;;;;5095513;28;20623;-66
2020/12/02 08:34:09;;;;;;;19.77;10.57;;;2.90;99.90;;;;;;5095631;28;20182;-64
2020/12/02 08:36:36;;;;;;;18.47;10.10;;;3.00;99.90;;;;;;5094526;28;20279;-64
2020/12/02 08:39:04;;;;;;;21.27;10.40;;;2.90;99.90;;;;;;5091442;28;20689;-66
2020/12/02 08:41:39;;;;;;;19.53;9.57;;;2.90;99.90;;;;;;5095122;28;20272;-63
2020/12/02 08:44:12;;;;;;;18.13;10.40;;;3.00;99.90;;;;;;5087625;28;20183;-64
2020/12/02 08:46:50;;;;;;;21.30;10.73;;;3.00;99.90;;;;;;5077678;28;20232;-64
2020/12/02 08:49:16;;;;;;;19.83;10.27;;;3.00;99.90;;;;;;5094844;28;20217;-63
2020/12/02 08:51:44;;;;;;;18.37;10.73;;;3.00;99.90;;;;;;5095352;28;20226;-65
2020/12/02 08:54:12;;;;;;;18.43;10.40;;;3.00;99.90;;;;;;5095104;28;20252;-63
2020/12/02 08:56:40;;;;;;;19.23;10.00;;;3.10;99.90;;;;;;5095159;28;20241;-65
2020/12/02 08:59:08;;;;;;;19.43;10.40;;;3.10;99.90;;;;;;5090556;28;20266;-64
2020/12/02 09:01:35;;;;;;;23.00;10.87;;;3.10;99.90;;;;;;5094924;28;20226;-63
2020/12/02 09:04:01;;;;;;;17.10;9.93;;;3.10;99.90;;;;;;5094667;28;20305;-64
2020/12/02 09:06:28;;;;;;;21.60;10.93;;;3.20;99.90;;;;;;5087718;28;20583;-64
2020/12/02 09:08:55;;;;;;;22.13;10.97;;;3.20;99.90;;;;;;5093262;28;20187;-64
2020/12/02 09:11:25;;;;;;;20.67;11.17;;;3.20;99.90;;;;;;5074431;28;20278;-63
2020/12/02 09:13:53;;;;;;;18.83;10.93;;;3.30;99.90;;;;;;5092278;28;20646;-64
2020/12/02 09:16:22;;;;;;;20.57;11.23;;;3.30;99.90;;;;;;5093880;28;20324;-65
2020/12/02 09:18:49;;;;;;;21.93;12.40;;;3.30;99.90;;;;;;5074243;28;20195;-64
2020/12/02 09:21:16;;;;;;;20.87;11.00;;;3.40;99.90;;;;;;5077035;28;20642;-64
2020/12/02 09:23:42;;;;;;;20.87;11.03;;;3.40;99.90;;;;;;5094025;28;20250;-65
2020/12/02 09:26:08;;;;;;;23.50;11.57;;;3.40;99.90;;;;;;5094650;28;20292;-65
2020/12/02 09:28:35;;;;;;;20.37;10.63;;;3.40;99.90;;;;;;5094718;28;20224;-66
2020/12/02 09:31:05;;;;;;;19.73;10.90;;;3.50;99.90;;;;;;5094173;28;20194;-63
2020/12/02 09:33:31;;;;;;;19.17;10.70;;;3.50;99.90;;;;;;5093778;28;20247;-64
2020/12/02 09:35:58;;;;;;;18.77;10.93;;;3.50;99.90;;;;;;5094046;28;20245;-62
2020/12/02 09:38:24;;;;;;;20.77;11.60;;;3.50;99.90;;;;;;5085457;28;20264;-65
2020/12/02 09:40:51;;;;;;;20.23;11.17;;;3.50;99.90;;;;;;5092207;28;20225;-63
2020/12/02 09:43:43;;;;;;;18.93;11.13;;;3.50;99.90;;;;;;5093636;28;20521;-65
2020/12/02 09:46:17;;;;;;;19.10;10.87;;;3.60;99.90;;;;;;5094293;28;20183;-66
2020/12/02 09:48:44;;;;;;;22.67;11.33;;;3.60;99.90;;;;;;5094054;28;20193;-64
2020/12/02 09:51:18;;;;;;;21.37;11.53;;;3.70;99.90;;;;;;5094092;28;20183;-65
2020/12/02 09:53:45;;;;;;;21.17;11.43;;;3.70;99.90;;;;;;5093291;28;20182;-63
2020/12/02 09:56:12;;;;;;;24.00;11.60;;;3.70;99.90;;;;;;5093380;28;20271;-64
2020/12/02 09:58:39;;;;;;;19.93;11.50;;;3.70;99.90;;;;;;5093998;28;20290;-66
2020/12/02 10:01:14;;;;;;;22.77;14.20;;;3.70;99.90;;;;;;5086026;28;20463;-65
2020/12/02 10:04:09;;;;;;;20.97;12.23;;;3.70;99.90;;;;;;5074110;28;20268;-65
2020/12/02 10:07:08;;;;;;;18.17;11.47;;;3.80;99.90;;;;;;5077761;28;20189;-66
2020/12/02 10:09:58;;;;;;;17.53;10.30;;;3.80;99.90;;;;;;5094423;28;20243;-67
2020/12/02 10:12:43;;;;;;;21.20;11.93;;;3.90;99.90;;;;;;5094550;28;20218;-67
2020/12/02 10:15:25;;;;;;;19.83;11.57;;;3.90;99.90;;;;;;5093684;28;20646;-70
2020/12/02 10:18:07;;;;;;;21.47;11.43;;;4.00;99.90;;;;;;5088130;28;20239;-67
2020/12/02 10:20:42;;;;;;;18.03;10.13;;;4.00;99.90;;;;;;5093764;28;20218;-65
2020/12/02 10:23:33;;;;;;;17.07;10.87;;;4.00;99.90;;;;;;5093541;28;20213;-67
2020/12/02 10:26:34;;;;;;;18.10;10.37;;;4.10;99.90;;;;;;5093660;28;20291;-69
2020/12/02 10:29:09;;;;;;;19.13;10.60;;;4.10;99.90;;;;;;5087140;28;20258;-71
2020/12/02 10:31:46;;;;;;;23.20;10.97;;;4.10;99.90;;;;;;5093789;28;20285;-68
2020/12/02 10:34:17;;;;;;;18.93;11.17;;;4.20;99.90;;;;;;5091590;28;20258;-70
2020/12/02 10:36:47;;;;;;;17.53;10.40;;;4.20;99.90;;;;;;5072842;28;20234;-70
2020/12/02 10:39:17;;;;;;;17.97;10.60;;;4.20;99.90;;;;;;5072847;28;20198;-69
2020/12/02 10:42:04;;;;;;;18.37;10.30;;;4.20;99.90;;;;;;5072771;28;20625;-68
2020/12/02 10:44:48;;;;;;;17.60;10.33;;;4.20;99.90;;;;;;5073528;28;20183;-67
2020/12/02 10:47:35;;;;;;;16.90;10.47;;;4.30;99.90;;;;;;5073031;28;20190;-68
2020/12/02 10:50:04;;;;;;;26.57;11.10;;;4.30;99.90;;;;;;5077916;28;20202;-68
2020/12/02 10:52:30;;;;;;;19.70;10.43;;;4.30;99.90;;;;;;5092634;28;20256;-67
2020/12/02 10:54:58;;;;;;;20.73;10.63;;;4.30;99.90;;;;;;5085755;28;20277;-68
2020/12/02 10:57:26;;;;;;;22.43;10.20;;;4.40;99.90;;;;;;5072532;28;20206;-68
2020/12/02 10:59:54;;;;;;;20.37;11.00;;;4.40;99.90;;;;;;5072289;28;20212;-66
2020/12/02 11:02:24;;;;;;;20.17;11.03;;;4.40;99.90;;;;;;5089038;28;20705;-72
2020/12/02 11:04:51;;;;;;;20.63;11.20;;;4.40;99.90;;;;;;5090839;28;20230;-69
2020/12/02 11:07:28;;;;;;;20.17;11.27;;;4.40;99.90;;;;;;5092691;28;20198;-70
2020/12/02 11:10:00;;;;;;;21.40;10.83;;;4.40;99.90;;;;;;5093018;28;20211;-66
2020/12/02 11:12:51;;;;;;;19.10;10.93;;;4.50;99.90;;;;;;5088368;28;20924;-66
2020/12/02 11:15:28;;;;;;;18.50;11.20;;;4.50;99.90;;;;;;5091131;28;20241;-69
2020/12/02 11:18:27;;;;;;;19.17;12.07;;;4.60;99.90;;;;;;5090540;28;20248;-65
2020/12/02 11:21:04;;;;;;;18.63;11.23;;;4.60;99.90;;;;;;5069936;28;20298;-68
2020/12/02 11:23:48;;;;;;;19.73;11.37;;;4.60;99.90;;;;;;5083719;28;20206;-70
2020/12/02 11:26:23;;;;;;;20.10;11.30;;;4.60;99.90;;;;;;5092874;28;20222;-68
2020/12/02 11:28:52;;;;;;;21.03;12.43;;;4.60;99.90;;;;;;5092556;28;20182;-67
2020/12/02 11:31:55;;;;;;;20.10;11.40;;;4.70;99.90;;;;;;5092546;28;20542;-67
2020/12/02 11:34:39;;;;;;;20.93;11.47;;;4.60;99.90;;;;;;5071749;28;20234;-69
2020/12/02 11:37:08;;;;;;;20.20;11.77;;;4.60;99.90;;;;;;5072545;28;20698;-69
2020/12/02 11:39:58;;;;;;;19.77;11.83;;;4.60;99.90;;;;;;5078118;28;20229;-68
2020/12/02 11:42:42;;;;;;;20.47;12.07;;;4.60;99.90;;;;;;5085876;28;20202;-65
2020/12/02 11:45:17;;;;;;;20.60;11.60;;;4.60;99.90;;;;;;5078121;28;20240;-67
2020/12/02 11:48:00;;;;;;;21.27;12.10;;;4.60;99.90;;;;;;5073915;28;20303;-67
2020/12/02 11:50:30;;;;;;;22.97;11.57;;;4.60;99.90;;;;;;5091212;28;20291;-68
2020/12/02 11:53:32;;;;;;;21.17;12.20;;;4.50;99.90;;;;;;5085239;28;20191;-68
2020/12/02 11:56:00;;;;;;;20.03;10.87;;;4.50;99.90;;;;;;5088973;28;20256;-64
2020/12/02 11:58:27;;;;;;;16.73;9.83;;;4.50;99.90;;;;;;5086562;28;20236;-64
2020/12/02 12:00:58;;;;;;;18.90;10.53;;;4.40;99.90;;;;;;5083189;28;20233;-67
2020/12/02 12:03:33;;;;;;;15.60;10.13;;;4.40;99.90;;;;;;5082716;28;20216;-67
2020/12/02 12:06:05;;;;;;;16.30;9.87;;;4.40;99.90;;;;;;5091769;28;20630;-64
2020/12/02 12:08:47;;;;;;;21.40;10.70;;;4.40;99.90;;;;;;5080158;28;20210;-68
2020/12/02 12:11:25;;;;;;;20.40;11.00;;;4.40;99.90;;;;;;5083855;28;20190;-66
2020/12/02 12:13:56;;;;;;;16.30;10.43;;;4.40;99.90;;;;;;5084731;28;20202;-67
2020/12/02 12:16:33;;;;;;;16.40;10.10;;;4.30;99.90;;;;;;5084175;28;20210;-66
2020/12/02 12:19:04;;;;;;;17.70;10.20;;;4.40;99.90;;;;;;5090247;28;20186;-65
2020/12/02 12:21:35;;;;;;;17.63;10.10;;;4.30;99.90;;;;;;5090384;28;20631;-67
2020/12/02 12:24:08;;;;;;;20.23;11.00;;;4.40;99.90;;;;;;5083785;28;20238;-64
2020/12/02 12:26:38;;;;;;;20.93;10.87;;;4.40;99.90;;;;;;5086663;28;20180;-69
2020/12/02 12:29:08;;;;;;;17.23;10.27;;;4.40;99.90;;;;;;5083933;28;20183;-67
2020/12/02 12:31:40;;;;;;;16.17;9.80;;;4.40;99.90;;;;;;5076509;28;20187;-69
2020/12/02 12:34:19;;;;;;;16.40;10.87;;;4.30;99.90;;;;;;5071691;28;20195;-64
2020/12/02 12:36:48;;;;;;;17.10;10.30;;;4.30;99.90;;;;;;5071524;28;20284;-67
2020/12/02 12:39:21;;;;;;;18.83;10.87;;;4.30;99.90;;;;;;5087190;28;20191;-66
2020/12/02 12:41:51;;;;;;;18.17;10.07;;;4.30;99.90;;;;;;5090063;28;20672;-68
2020/12/02 12:44:24;;;;;;;17.77;10.40;;;4.30;99.90;;;;;;5082680;28;20607;-66
2020/12/02 12:47:01;;;;;;;17.33;10.23;;;4.30;99.90;;;;;;5071056;28;20195;-70
2020/12/02 12:49:29;;;;;;;17.90;9.93;;;4.30;99.90;;;;;;5079701;28;20360;-63
2020/12/02 12:51:57;;;;;;;18.27;10.47;;;4.30;99.90;;;;;;5072804;28;20241;-62
2020/12/02 12:54:24;;;;;;;17.17;10.37;;;4.30;99.90;;;;;;5074331;28;20199;-61
2020/12/02 12:56:53;;;;;;;20.07;10.90;;;4.30;99.90;;;;;;5074785;28;20191;-63
2020/12/02 12:59:21;;;;;;;21.13;10.87;;;4.30;99.90;;;;;;5074870;28;20269;-63
2020/12/02 13:01:50;;;;;;;17.70;10.57;;;4.30;99.90;;;;;;5086231;28;20255;-64
2020/12/02 13:04:20;;;;;;;17.47;10.87;;;4.30;99.90;;;;;;5094954;28;20250;-62
2020/12/02 13:06:57;;;;;;;19.23;11.17;;;4.20;99.90;;;;;;5094501;28;20236;-62